Terminal Aerodrome Forecast
Issued by NWS Portland, OR

Home | Current Version | Previous Version | Text Only | Print | Product List | Glossary On
Versions: 1 2 3 4 5 6 7 8 9 10 11 12 13 14 15 16 17 18 19 20 21 22 23 24 25 26 27 28 29 30 31 32 33 34 35 36 37 38
000
FTUS46 KPQR 271612 AAA
TAFSLE
TAF AMD
KSLE 271612Z 2716/2812 19012G20KT 6SM -RA BR SCT025 OVC040
     FM271800 19012KT 5SM -RA BR SCT015 OVC025
     FM272200 19009KT P6SM -SHRA SCT012 BKN025 OVC040
     FM280400 18009KT P6SM -RA SCT012 BKN025 OVC040=

USA.gov is the U.S. government's official web portal to all federal, state and local government web resources and services.